createdAt,value
2023-05-19T00:01:49.808Z,101235.78
2023-05-19T00:04:18.253Z,101235.28
2023-05-19T00:06:50.995Z,101230.59
2023-05-19T00:09:19.019Z,101231.13
2023-05-19T00:11:47.376Z,101232.09
2023-05-19T00:14:15.675Z,101231.44
2023-05-19T00:16:43.869Z,101230.06
2023-05-19T00:19:13.119Z,101224.34
2023-05-19T00:21:41.038Z,101230.22
2023-05-19T00:24:08.856Z,101226.03
2023-05-19T00:26:36.562Z,101226.03
2023-05-19T00:29:04.307Z,101226.88
2023-05-19T00:31:33.976Z,101239.34
2023-05-19T00:34:02.155Z,101235.69
2023-05-19T00:36:31.211Z,101239.34
2023-05-19T00:38:58.832Z,101237.19
2023-05-19T00:41:27.216Z,101231.03
2023-05-19T00:43:55.141Z,101236.66
2023-05-19T00:46:23.015Z,101232.28
2023-05-19T00:48:50.934Z,101226.75
2023-05-19T00:51:19.496Z,101227.56
2023-05-19T00:53:51.065Z,101230.91
2023-05-19T00:56:19.716Z,101219.53
2023-05-19T00:58:48.181Z,101221.69
2023-05-19T01:01:17.285Z,101223.34
2023-05-19T01:03:47.203Z,101217.38
2023-05-19T01:06:15.140Z,101217.19
2023-05-19T01:08:42.797Z,101215.16
2023-05-19T01:11:11.801Z,101216.34
2023-05-19T01:13:41.907Z,101213.81
2023-05-19T01:16:14.987Z,101205.41
2023-05-19T01:18:51.674Z,101207.25
2023-05-19T01:21:56.844Z,101205.41
2023-05-19T01:24:41.975Z,101210.22
2023-05-19T01:27:43.678Z,101211.84
2023-05-19T01:30:29.658Z,101198.44
2023-05-19T01:33:01.584Z,101204.31
2023-05-19T01:35:32.929Z,101208.34
2023-05-19T01:38:01.697Z,101210.69
2023-05-19T01:40:30.248Z,101208.19
2023-05-19T01:43:00.740Z,101204.72
2023-05-19T01:45:31.448Z,101212.00
2023-05-19T01:48:01.645Z,101217.50
2023-05-19T01:50:30.374Z,101217.19
2023-05-19T01:52:58.739Z,101213.22
2023-05-19T01:55:26.850Z,101220.00
2023-05-19T01:58:03.836Z,101214.25
2023-05-19T02:00:46.313Z,101216.53
2023-05-19T02:03:26.878Z,101234.63
2023-05-19T02:05:59.894Z,101228.66
2023-05-19T02:08:35.052Z,101221.78
2023-05-19T02:11:08.937Z,101217.28
2023-05-19T02:13:40.603Z,101224.09
2023-05-19T02:16:11.826Z,101219.16
2023-05-19T02:18:45.524Z,101226.91
2023-05-19T02:21:13.505Z,101229.22
2023-05-19T02:23:41.899Z,101224.09
2023-05-19T02:26:09.708Z,101230.38
2023-05-19T02:28:37.532Z,101223.88
2023-05-19T02:31:08.770Z,101222.22
2023-05-19T02:33:37.852Z,101223.19
2023-05-19T02:36:06.377Z,101223.19
2023-05-19T02:38:34.123Z,101220.97
2023-05-19T02:41:01.818Z,101222.16
2023-05-19T02:43:30.575Z,101212.22
2023-05-19T02:45:58.386Z,101217.56
2023-05-19T02:48:26.105Z,101211.28
2023-05-19T02:50:55.104Z,101217.56
2023-05-19T02:53:22.778Z,101212.38
2023-05-19T02:55:50.490Z,101214.28
2023-05-19T02:58:18.644Z,101217.31
2023-05-19T03:00:46.329Z,101211.91
2023-05-19T03:03:15.028Z,101211.97
2023-05-19T03:05:42.933Z,101205.03
2023-05-19T03:08:12.026Z,101200.94
2023-05-19T03:10:39.868Z,101209.16
2023-05-19T03:13:07.533Z,101213.16
2023-05-19T03:15:36.555Z,101213.22
2023-05-19T03:18:04.482Z,101213.53
2023-05-19T03:20:32.379Z,101209.56
2023-05-19T03:23:00.150Z,101204.53
2023-05-19T03:25:30.001Z,101207.63
2023-05-19T03:27:57.702Z,101210.16
2023-05-19T03:30:25.357Z,101218.63
2023-05-19T03:32:53.290Z,101218.78
2023-05-19T03:35:21.279Z,101226.16
2023-05-19T03:37:48.965Z,101225.94
2023-05-19T03:40:18.860Z,101226.78
2023-05-19T03:42:47.925Z,101226.78
2023-05-19T03:45:15.698Z,101227.75
2023-05-19T03:47:43.460Z,101229.59
2023-05-19T03:50:11.717Z,101232.72
2023-05-19T03:52:39.802Z,101228.53
2023-05-19T03:55:08.718Z,101224.03
2023-05-19T03:57:37.714Z,101225.47
2023-05-19T04:00:08.266Z,101229.56
2023-05-19T04:02:35.998Z,101227.53
2023-05-19T04:05:05.065Z,101216.47
2023-05-19T04:07:32.790Z,101229.78
2023-05-19T04:10:03.214Z,101227.75
2023-05-19T04:12:30.889Z,101234.22
2023-05-19T04:14:58.582Z,101232.53
2023-05-19T04:17:28.235Z,101228.38
2023-05-19T04:19:56.186Z,101232.06
2023-05-19T04:22:24.053Z,101231.63
2023-05-19T04:24:52.954Z,101236.50
2023-05-19T04:27:22.195Z,101236.59
2023-05-19T04:29:50.067Z,101231.63
2023-05-19T04:32:18.513Z,101230.88
2023-05-19T04:34:47.568Z,101232.09
2023-05-19T04:37:16.242Z,101236.88
2023-05-19T04:39:45.324Z,101241.16
2023-05-19T04:42:13.339Z,101243.38
2023-05-19T04:44:41.207Z,101243.91
2023-05-19T04:47:10.212Z,101248.41
2023-05-19T04:49:39.533Z,101242.78
2023-05-19T04:52:10.966Z,101247.69
2023-05-19T04:54:39.484Z,101245.56
2023-05-19T04:57:07.616Z,101253.97
2023-05-19T04:59:35.394Z,101253.22
2023-05-19T05:02:04.247Z,101250.91
2023-05-19T05:04:32.462Z,101253.28
2023-05-19T05:07:00.135Z,101249.03
2023-05-19T05:09:29.179Z,101251.47
2023-05-19T05:11:57.269Z,101247.50
2023-05-19T05:14:25.455Z,101254.97
2023-05-19T05:16:53.702Z,101254.38
2023-05-19T05:19:22.169Z,101255.66
2023-05-19T05:21:50.783Z,101252.38
2023-05-19T05:24:19.632Z,101252.97
2023-05-19T05:26:49.312Z,101252.38
2023-05-19T05:29:16.944Z,101255.72
2023-05-19T05:31:44.593Z,101252.75
2023-05-19T05:34:12.315Z,101247.41
2023-05-19T05:36:39.973Z,101243.66
2023-05-19T05:39:08.063Z,101237.03
2023-05-19T05:41:36.065Z,101242.38
2023-05-19T05:44:05.252Z,101242.84
2023-05-19T05:46:33.523Z,101247.13
2023-05-19T05:49:03.514Z,101240.63
2023-05-19T05:51:32.934Z,101238.13
2023-05-19T05:54:01.795Z,101239.72
2023-05-19T05:56:29.948Z,101243.91
2023-05-19T05:58:57.735Z,101237.88
2023-05-19T06:01:26.827Z,101244.75
2023-05-19T06:03:54.555Z,101242.03
2023-05-19T06:06:22.305Z,101239.56
2023-05-19T06:08:50.032Z,101239.81
2023-05-19T06:11:17.716Z,101238.63
2023-05-19T06:13:45.393Z,101242.94
2023-05-19T06:16:13.036Z,101236.41
2023-05-19T06:18:42.154Z,101243.59
2023-05-19T06:21:10.198Z,101236.56
2023-05-19T06:23:37.977Z,101236.13
2023-05-19T06:26:05.828Z,101234.09
2023-05-19T06:28:34.363Z,101233.31
2023-05-19T06:31:02.256Z,101232.25
2023-05-19T06:33:29.972Z,101235.66
2023-05-19T06:35:59.070Z,101239.13
2023-05-19T06:38:26.720Z,101242.50
2023-05-19T06:40:54.404Z,101239.53
2023-05-19T06:43:22.117Z,101247.09
2023-05-19T06:45:49.749Z,101245.16
2023-05-19T06:48:17.768Z,101245.03
2023-05-19T06:50:46.055Z,101247.22
2023-05-19T06:53:15.107Z,101244.41
2023-05-19T06:55:57.400Z,101242.44
2023-05-19T06:58:26.841Z,101248.22
2023-05-19T07:00:54.773Z,101235.22
2023-05-19T07:03:22.579Z,101229.88
2023-05-19T07:05:50.517Z,101230.06
2023-05-19T07:08:19.488Z,101235.28
2023-05-19T07:10:47.143Z,101222.91
2023-05-19T07:13:14.899Z,101228.47
2023-05-19T07:15:42.609Z,101223.28
2023-05-19T07:18:10.370Z,101217.78
2023-05-19T07:20:38.078Z,101214.75
2023-05-19T07:23:05.951Z,101213.56
2023-05-19T07:25:35.088Z,101213.25
2023-05-19T07:28:02.788Z,101214.75
2023-05-19T07:30:30.621Z,101211.91
2023-05-19T07:32:58.500Z,101211.22
2023-05-19T07:35:27.752Z,101206.16
2023-05-19T07:37:55.524Z,101207.53
2023-05-19T07:40:25.156Z,101204.00
2023-05-19T07:42:54.220Z,101206.50
2023-05-19T07:45:21.923Z,101198.59
2023-05-19T07:47:49.637Z,101194.38
2023-05-19T07:50:17.427Z,101183.63
2023-05-19T07:52:45.117Z,101192.69
2023-05-19T07:55:13.579Z,101186.75
2023-05-19T07:57:41.536Z,101179.50
2023-05-19T08:00:12.055Z,101182.91
2023-05-19T08:02:39.844Z,101181.72
2023-05-19T08:05:09.503Z,101189.38
2023-05-19T08:07:37.481Z,101183.75
2023-05-19T08:10:05.712Z,101185.56
2023-05-19T08:12:33.497Z,101182.47
2023-05-19T08:15:01.762Z,101183.00
2023-05-19T08:17:31.098Z,101185.28
2023-05-19T08:19:58.837Z,101188.72
2023-05-19T08:22:26.668Z,101178.56
2023-05-19T08:24:54.322Z,101167.13
2023-05-19T08:27:22.016Z,101171.38
2023-05-19T08:29:49.636Z,101168.06
2023-05-19T08:32:17.398Z,101165.56
2023-05-19T08:34:46.413Z,101154.34
2023-05-19T08:37:14.029Z,101162.69
2023-05-19T08:39:41.673Z,101160.94
2023-05-19T08:42:10.110Z,101160.81
2023-05-19T08:44:39.931Z,101156.53
2023-05-19T08:47:13.276Z,101155.41
2023-05-19T08:49:46.972Z,101158.47
2023-05-19T08:52:21.042Z,101141.19
2023-05-19T08:54:56.529Z,101143.81
2023-05-19T08:57:26.044Z,101144.81
2023-05-19T08:59:55.402Z,101137.84
2023-05-19T09:02:23.834Z,101142.47
2023-05-19T09:04:57.969Z,101130.94
2023-05-19T09:07:26.844Z,101127.25
2023-05-19T09:09:54.542Z,101136.41
2023-05-19T09:12:22.396Z,101128.19
2023-05-19T09:14:50.141Z,101129.50
2023-05-19T09:17:18.861Z,101128.06
2023-05-19T09:19:48.108Z,101126.28
2023-05-19T09:22:19.037Z,101120.78
2023-05-19T09:24:46.738Z,101121.44
2023-05-19T09:27:16.412Z,101111.97
2023-05-19T09:29:44.170Z,101105.56
2023-05-19T09:32:11.876Z,101110.78
2023-05-19T09:34:42.804Z,101112.94
2023-05-19T09:37:10.418Z,101102.56
2023-05-19T09:39:42.498Z,101110.50
2023-05-19T09:42:10.206Z,101110.84
2023-05-19T09:44:38.003Z,101113.00
2023-05-19T09:47:05.970Z,101106.19
2023-05-19T09:49:33.921Z,101100.16
2023-05-19T09:52:04.541Z,101102.28
2023-05-19T09:54:34.745Z,101098.09
2023-05-19T09:57:08.328Z,101094.81
2023-05-19T09:59:38.827Z,101095.88
2023-05-19T10:02:10.914Z,101096.09
2023-05-19T10:04:38.787Z,101095.22
2023-05-19T10:07:11.045Z,101095.41
2023-05-19T10:09:40.365Z,101086.28
2023-05-19T10:12:11.968Z,101084.16
2023-05-19T10:14:40.143Z,101094.97
2023-05-19T10:17:10.232Z,101081.06
2023-05-19T10:19:39.565Z,101080.69
2023-05-19T10:22:07.172Z,101075.72
2023-05-19T10:24:34.893Z,101079.06
2023-05-19T10:27:07.099Z,101080.53
2023-05-19T10:29:42.137Z,101076.19
2023-05-19T10:32:15.721Z,101078.44
2023-05-19T10:35:10.230Z,101066.19
2023-05-19T10:37:45.965Z,101060.16
2023-05-19T10:40:22.352Z,101060.41
2023-05-19T10:43:11.856Z,101068.09
2023-05-19T10:45:48.695Z,101072.41
2023-05-19T10:48:17.302Z,101071.97
2023-05-19T10:50:46.628Z,101070.94
2023-05-19T10:53:22.543Z,101072.81
2023-05-19T10:55:55.925Z,101071.41
2023-05-19T10:58:39.165Z,101078.28
2023-05-19T11:01:14.835Z,101073.28
2023-05-19T11:03:49.722Z,101067.44
2023-05-19T11:06:28.200Z,101064.75
2023-05-19T11:08:58.791Z,101057.03
2023-05-19T11:11:26.513Z,101052.38
2023-05-19T11:13:56.134Z,101055.91
2023-05-19T11:16:35.889Z,101057.94
2023-05-19T11:19:03.808Z,101064.50
2023-05-19T11:21:49.321Z,101057.97
2023-05-19T11:24:35.090Z,101062.13
2023-05-19T11:27:19.076Z,101049.81
2023-05-19T11:29:48.218Z,101044.03
2023-05-19T11:32:17.387Z,101047.81
2023-05-19T11:34:45.630Z,101045.28
2023-05-19T11:37:13.465Z,101044.25
2023-05-19T11:39:41.468Z,101038.06
2023-05-19T11:42:10.493Z,101043.94
2023-05-19T11:44:38.708Z,101038.34
2023-05-19T11:47:07.211Z,101036.25
2023-05-19T11:49:36.216Z,101027.34
2023-05-19T11:52:04.938Z,101031.50
2023-05-19T11:54:33.881Z,101027.97
2023-05-19T11:57:03.331Z,101026.31
2023-05-19T11:59:34.836Z,101018.44
2023-05-19T12:02:04.803Z,101007.63
2023-05-19T12:04:32.720Z,101004.28
2023-05-19T12:07:01.811Z,100998.25
2023-05-19T12:09:29.746Z,101003.22
2023-05-19T12:11:57.415Z,101002.19
2023-05-19T12:14:27.122Z,100997.84
2023-05-19T12:16:54.842Z,101005.97
2023-05-19T12:19:24.488Z,101002.44
2023-05-19T12:21:52.638Z,100990.38
2023-05-19T12:24:23.083Z,100990.59
2023-05-19T12:26:50.759Z,100990.16
2023-05-19T12:29:18.506Z,101005.16
2023-05-19T12:31:48.156Z,101005.97
2023-05-19T12:34:16.872Z,101006.41
2023-05-19T12:36:44.586Z,100994.78
2023-05-19T12:39:13.631Z,100995.81
2023-05-19T12:41:45.855Z,100999.38
2023-05-19T12:44:16.667Z,100994.34
2023-05-19T12:46:45.216Z,100984.16
2023-05-19T12:49:12.908Z,100994.16
2023-05-19T12:51:40.683Z,100990.81
2023-05-19T12:54:08.533Z,100991.84
2023-05-19T12:56:36.237Z,100981.03
2023-05-19T12:59:05.277Z,100982.28
2023-05-19T13:01:33.350Z,100980.47
2023-05-19T13:04:02.616Z,100984.16
2023-05-19T13:06:33.042Z,100987.28
2023-05-19T13:09:00.732Z,100986.06
2023-05-19T13:11:29.129Z,100985.44
2023-05-19T13:13:57.697Z,100978.56
2023-05-19T13:16:26.723Z,100977.31
2023-05-19T13:18:54.888Z,100975.66
2023-05-19T13:21:22.719Z,100974.81
2023-05-19T13:23:50.401Z,100971.25
2023-05-19T13:26:18.035Z,100970.63
2023-05-19T13:28:45.776Z,100970.44
2023-05-19T13:31:13.482Z,100972.28
2023-05-19T13:33:42.528Z,100974.81
2023-05-19T13:36:10.247Z,100972.97
2023-05-19T13:38:37.897Z,100974.22
2023-05-19T13:41:05.573Z,100972.75
2023-05-19T13:43:33.406Z,100972.97
2023-05-19T13:46:01.161Z,100970.06
2023-05-19T13:48:28.899Z,100962.38
2023-05-19T13:50:57.961Z,100962.19
2023-05-19T13:53:26.457Z,100959.88
2023-05-19T13:55:55.183Z,100958.22
2023-05-19T13:58:23.261Z,100962.41
2023-05-19T14:00:54.488Z,100963.22
2023-05-19T14:03:22.215Z,100968.19
2023-05-19T14:05:50.085Z,100960.72
2023-05-19T14:08:19.998Z,100964.66
2023-05-19T14:10:47.898Z,100966.53
2023-05-19T14:15:53.427Z,100963.84
2023-05-19T14:18:21.413Z,100962.78
2023-05-19T14:20:49.118Z,100950.97
2023-05-19T14:23:17.032Z,100953.88
2023-05-19T14:25:46.056Z,100952.19
2023-05-19T14:28:13.705Z,100941.00
2023-05-19T14:30:41.581Z,100948.66
2023-05-19T14:33:09.588Z,100945.31
2023-05-19T14:35:37.313Z,100946.16
2023-05-19T14:38:05.010Z,100944.06
2023-05-19T14:40:32.938Z,100939.53
2023-05-19T14:43:02.195Z,100943.66
2023-05-19T14:45:30.477Z,100937.03
2023-05-19T14:47:58.222Z,100941.97
2023-05-19T14:50:27.854Z,100937.22
2023-05-19T14:52:57.758Z,100948.00
2023-05-19T14:55:25.458Z,100944.88
2023-05-19T14:57:53.253Z,100945.31
2023-05-19T15:00:22.328Z,100944.47
2023-05-19T15:02:50.174Z,100945.91
2023-05-19T15:05:17.918Z,100941.13
2023-05-19T15:07:45.667Z,100941.13
2023-05-19T15:10:13.588Z,100943.19
2023-05-19T15:12:41.233Z,100937.59
2023-05-19T15:15:10.057Z,100935.50
2023-05-19T15:17:39.367Z,100932.00
2023-05-19T15:20:08.293Z,100936.97
2023-05-19T15:22:36.375Z,100933.25
2023-05-19T15:25:04.261Z,100937.78
2023-05-19T15:27:31.903Z,100940.31
2023-05-19T15:29:59.788Z,100937.19
2023-05-19T15:32:27.523Z,100938.84
2023-05-19T15:34:56.624Z,100935.75
2023-05-19T15:37:24.311Z,100936.78
2023-05-19T15:39:52.035Z,100926.63
2023-05-19T15:42:19.682Z,100920.81
2023-05-19T15:44:47.689Z,100920.22
2023-05-19T15:47:15.465Z,100920.41
2023-05-19T15:49:43.163Z,100927.25
2023-05-19T15:52:12.210Z,100915.00
2023-05-19T15:54:39.883Z,100922.06
2023-05-19T15:57:07.686Z,100923.31
2023-05-19T15:59:35.509Z,100919.34
2023-05-19T16:02:03.398Z,100921.22
2023-05-19T16:04:31.142Z,100917.47
2023-05-19T16:06:58.917Z,100913.53
2023-05-19T16:09:28.003Z,100913.75
2023-05-19T16:11:55.730Z,100916.22
2023-05-19T16:14:24.463Z,100915.41
2023-05-19T16:16:52.160Z,100915.84
2023-05-19T16:19:19.947Z,100909.19
2023-05-19T16:21:47.709Z,100905.06
2023-05-19T16:24:15.526Z,100902.56
2023-05-19T16:26:44.563Z,100897.19
2023-05-19T16:29:12.233Z,100899.03
2023-05-19T16:31:39.958Z,100890.13
2023-05-19T16:34:08.385Z,100883.50
2023-05-19T16:36:36.496Z,100885.38
2023-05-19T16:39:04.417Z,100881.63
2023-05-19T16:41:32.097Z,100882.25
2023-05-19T16:44:02.180Z,100882.25
2023-05-19T16:46:31.522Z,100878.94
2023-05-19T16:48:59.439Z,100874.38
2023-05-19T16:51:27.126Z,100871.44
2023-05-19T16:53:56.063Z,100873.94
2023-05-19T16:56:23.809Z,100866.91
2023-05-19T16:58:52.896Z,100866.06
2023-05-19T17:01:22.033Z,100863.59
2023-05-19T17:03:49.801Z,100862.56
2023-05-19T17:06:17.527Z,100865.03
2023-05-19T17:08:45.188Z,100861.72
2023-05-19T17:11:13.429Z,100859.44
2023-05-19T17:13:43.406Z,100861.09
2023-05-19T17:16:11.151Z,100861.50
2023-05-19T17:18:40.222Z,100863.56
2023-05-19T17:21:07.936Z,100865.03
2023-05-19T17:23:35.634Z,100856.50
2023-05-19T17:26:03.541Z,100858.56
2023-05-19T17:28:31.203Z,100866.66
2023-05-19T17:30:58.945Z,100868.31
2023-05-19T17:33:26.784Z,100869.34
2023-05-19T17:35:55.878Z,100865.00
2023-05-19T17:38:23.608Z,100867.69
2023-05-19T17:40:51.256Z,100870.63
2023-05-19T17:43:18.897Z,100868.94
2023-05-19T17:45:46.618Z,100879.72
2023-05-19T17:48:14.287Z,100878.06
2023-05-19T17:50:41.940Z,100872.69
2023-05-19T17:53:11.318Z,100871.66
2023-05-19T17:55:39.490Z,100877.44
2023-05-19T17:58:07.990Z,100875.75
2023-05-19T18:00:36.196Z,100881.34
2023-05-19T18:03:06.153Z,100878.84
2023-05-19T18:05:34.522Z,100874.72
2023-05-19T18:08:06.970Z,100876.59
2023-05-19T18:10:37.962Z,100875.97
2023-05-19T18:13:05.903Z,100875.97
2023-05-19T18:15:34.029Z,100875.31
2023-05-19T18:18:03.032Z,100870.78
2023-05-19T18:20:31.303Z,100878.44
